Time;durP1;ratioP1;P1;durP2;ratioP2;P2;SDS_P1;SDS_P2;PMS_P1;PMS_P2;Temp;Humidity;BMP_temperature;BMP_pressure;BME280_temperature;BME280_humidity;BME280_pressure;Samples;Min_cycle;Max_cycle;Signal;HPM_P1;HPM_P2
2021/07/05 00:00:13;;;;;;;;;;;14.10;99.90;;;;;;4904580;29;19927;-74
2021/07/05 00:02:40;;;;;;;;;;;14.10;99.90;;;;;;4919917;29;19962;-74
2021/07/05 00:05:07;;;;;;;;;;;14.10;99.90;;;;;;4937143;29;19927;-74
2021/07/05 00:07:34;;;;;;;;;;;14.10;99.90;;;;;;4920243;29;19927;-73
2021/07/05 00:10:07;;;;;;;;;;;14.10;99.90;;;;;;4920738;29;19931;-74
2021/07/05 00:12:34;;;;;;;;;;;14.10;99.90;;;;;;4919604;29;20441;-74
2021/07/05 00:15:07;;;;;;;;;;;14.10;99.90;;;;;;4937289;29;19933;-74
2021/07/05 00:17:39;;;;;;;;;;;14.10;99.90;;;;;;4920812;29;20402;-74
2021/07/05 00:20:11;;;;;;;;;;;14.10;99.90;;;;;;4904952;29;19933;-74
2021/07/05 00:22:37;;;;;;;;;;;14.10;99.90;;;;;;4919286;29;20049;-74
2021/07/05 00:25:05;;;;;;;;;;;14.10;99.90;;;;;;4936753;29;19933;-74
2021/07/05 00:27:37;;;;;;;;;;;14.10;99.90;;;;;;4919773;29;19927;-74
2021/07/05 00:30:04;;;;;;;;;;;14.10;99.90;;;;;;4903512;29;19930;-74
2021/07/05 00:32:36;;;;;;;;;;;14.10;99.90;;;;;;4936344;29;19933;-74
2021/07/05 00:35:08;;;;;;;;;;;14.00;99.90;;;;;;4919429;29;19933;-74
2021/07/05 00:37:40;;;;;;;;;;;14.00;99.90;;;;;;4919478;29;20021;-74
2021/07/05 00:40:14;;;;;;;;;;;14.10;99.90;;;;;;4920365;29;19934;-74
2021/07/05 00:42:40;;;;;;;;;;;14.00;99.90;;;;;;4919227;29;20458;-74
2021/07/05 00:45:08;;;;;;;;;;;14.10;99.90;;;;;;4919556;29;20485;-74
2021/07/05 00:47:35;;;;;;;;;;;14.00;99.90;;;;;;4919162;29;19937;-74
2021/07/05 00:50:08;;;;;;;;;;;14.00;99.90;;;;;;4904278;29;19933;-74
2021/07/05 00:52:35;;;;;;;;;;;14.00;99.90;;;;;;4918726;29;20499;-74
2021/07/05 00:55:03;;;;;;;;;;;14.10;99.90;;;;;;4919108;29;19927;-74
2021/07/05 00:57:35;;;;;;;;;;;14.00;99.90;;;;;;4918553;29;19928;-74
2021/07/05 01:00:08;;;;;;;;;;;14.00;99.90;;;;;;4903536;29;19933;-74
2021/07/05 01:02:40;;;;;;;;;;;13.90;99.90;;;;;;4918276;29;19934;-74
2021/07/05 01:05:07;;;;;;;;;;;13.90;99.90;;;;;;4918399;29;19930;-74
2021/07/05 01:07:34;;;;;;;;;;;14.00;99.90;;;;;;4902600;29;20030;-74
2021/07/05 01:10:07;;;;;;;;;;;13.90;99.90;;;;;;4919148;29;19946;-74
2021/07/05 01:12:38;;;;;;;;;;;13.90;99.90;;;;;;4917892;29;19931;-74
2021/07/05 01:15:10;;;;;;;;;;;13.90;99.90;;;;;;4902557;29;19927;-74
2021/07/05 01:17:37;;;;;;;;;;;13.90;99.90;;;;;;4935216;29;19926;-74
2021/07/05 01:20:10;;;;;;;;;;;13.90;99.90;;;;;;4918194;29;19926;-74
2021/07/05 01:22:42;;;;;;;;;;;13.90;99.90;;;;;;4917597;29;19933;-74
2021/07/05 01:25:14;;;;;;;;;;;13.90;99.90;;;;;;4934988;29;19940;-74
2021/07/05 01:27:43;;;;;;;;;;;14.00;99.90;;;;;;4902439;29;20017;-74
2021/07/05 01:30:17;;;;;;;;;;;14.00;99.90;;;;;;4902942;29;19949;-74
2021/07/05 01:32:49;;;;;;;;;;;14.00;99.90;;;;;;4903125;29;19948;-74
2021/07/05 01:35:21;;;;;;;;;;;14.00;99.90;;;;;;4918549;29;19927;-74
2021/07/05 01:37:48;;;;;;;;;;;14.00;99.90;;;;;;4918517;29;19927;-74
2021/07/05 01:40:20;;;;;;;;;;;14.10;99.90;;;;;;4935565;29;19934;-74
2021/07/05 01:42:53;;;;;;;;;;;14.00;99.90;;;;;;4901566;29;19927;-74
2021/07/05 01:45:21;;;;;;;;;;;14.00;99.90;;;;;;4917743;29;19933;-74
2021/07/05 01:47:48;;;;;;;;;;;14.00;99.90;;;;;;4917747;29;19933;-74
2021/07/05 01:50:17;;;;;;;;;;;14.00;99.90;;;;;;4934768;29;20342;-74
2021/07/05 01:52:49;;;;;;;;;;;14.10;99.90;;;;;;4902115;29;19934;-74
2021/07/05 01:55:27;;;;;;;;;;;14.10;99.90;;;;;;4935300;29;19961;-74
2021/07/05 01:57:53;;;;;;;;;;;14.10;99.90;;;;;;4918140;29;20021;-74
2021/07/05 02:00:27;;;;;;;;;;;14.10;99.90;;;;;;4902853;29;20021;-74
2021/07/05 02:02:54;;;;;;;;;;;14.10;99.90;;;;;;4917883;29;19931;-74
2021/07/05 02:05:22;;;;;;;;;;;14.00;99.90;;;;;;4902541;29;20420;-74
2021/07/05 02:07:54;;;;;;;;;;;14.00;99.90;;;;;;4918121;29;19966;-74
2021/07/05 02:10:30;;;;;;;;;;;14.00;99.90;;;;;;4918245;29;19926;-74
2021/07/05 02:13:04;;;;;;;;;;;14.00;99.90;;;;;;4902358;29;19966;-74
2021/07/05 02:15:31;;;;;;;;;;;14.00;99.90;;;;;;4902133;29;19927;-74
2021/07/05 02:17:57;;;;;;;;;;;14.00;99.90;;;;;;4918116;29;20014;-74
2021/07/05 02:20:29;;;;;;;;;;;13.90;99.90;;;;;;4902701;29;19934;-74
2021/07/05 02:23:01;;;;;;;;;;;14.00;99.90;;;;;;4918322;29;19926;-74
2021/07/05 02:25:29;;;;;;;;;;;14.00;99.90;;;;;;4917820;29;19933;-74
2021/07/05 02:27:57;;;;;;;;;;;14.00;99.90;;;;;;4917938;29;20009;-74
2021/07/05 02:30:25;;;;;;;;;;;14.00;99.90;;;;;;4917938;29;19985;-74
2021/07/05 02:32:58;;;;;;;;;;;14.00;99.90;;;;;;4902399;29;20297;-74
2021/07/05 02:35:31;;;;;;;;;;;14.00;99.90;;;;;;4917616;29;19927;-74
2021/07/05 02:38:03;;;;;;;;;;;14.00;99.90;;;;;;4917617;29;19937;-74
2021/07/05 02:40:37;;;;;;;;;;;14.00;99.90;;;;;;4917605;29;20025;-74
2021/07/05 02:43:08;;;;;;;;;;;14.00;99.90;;;;;;4917136;29;19935;-74
2021/07/05 02:45:43;;;;;;;;;;;14.00;99.90;;;;;;4902467;29;19949;-74
2021/07/05 02:48:14;;;;;;;;;;;14.00;99.90;;;;;;4917592;29;19933;-74
2021/07/05 02:50:43;;;;;;;;;;;14.00;99.90;;;;;;4901752;29;20293;-74
2021/07/05 02:53:14;;;;;;;;;;;14.00;99.90;;;;;;4918044;29;19927;-74
2021/07/05 02:55:46;;;;;;;;;;;13.90;99.90;;;;;;4922324;29;19926;-74
2021/07/05 02:58:18;;;;;;;;;;;13.90;99.90;;;;;;4938587;29;19927;-74
2021/07/05 03:00:51;;;;;;;;;;;13.90;99.90;;;;;;4921131;29;19931;-74
2021/07/05 03:03:18;;;;;;;;;;;13.90;99.90;;;;;;4920957;29;20360;-74
2021/07/05 03:05:45;;;;;;;;;;;13.90;99.90;;;;;;4905310;29;20490;-74
2021/07/05 03:08:17;;;;;;;;;;;13.90;99.90;;;;;;4921124;29;19927;-74
2021/07/05 03:10:44;;;;;;;;;;;13.90;99.90;;;;;;4905413;29;20032;-74
2021/07/05 03:13:15;;;;;;;;;;;14.00;99.90;;;;;;4938056;29;20393;-74
2021/07/05 03:15:47;;;;;;;;;;;14.00;99.90;;;;;;4921833;29;19927;-74
2021/07/05 03:18:15;;;;;;;;;;;14.00;99.90;;;;;;4921059;29;20033;-74
2021/07/05 03:20:43;;;;;;;;;;;14.10;99.90;;;;;;4920764;29;19934;-74
2021/07/05 03:23:11;;;;;;;;;;;14.10;99.90;;;;;;4920630;29;19926;-74
2021/07/05 03:25:39;;;;;;;;;;;14.10;99.90;;;;;;4920867;29;19927;-74
2021/07/05 03:28:10;;;;;;;;;;;14.10;99.90;;;;;;4920713;29;20033;-74
2021/07/05 03:30:38;;;;;;;;;;;14.10;99.90;;;;;;4920891;29;20393;-74
2021/07/05 03:33:10;;;;;;;;;;;14.10;99.90;;;;;;4921154;29;19933;-74
2021/07/05 03:35:42;;;;;;;;;;;14.10;99.90;;;;;;4920524;29;19933;-74
2021/07/05 03:38:08;;;;;;;;;;;14.10;99.90;;;;;;4905040;29;19933;-74
2021/07/05 03:40:36;;;;;;;;;;;14.10;99.90;;;;;;4920595;29;20365;-74
2021/07/05 03:43:08;;;;;;;;;;;14.10;99.90;;;;;;4921120;29;19927;-74
2021/07/05 03:45:40;;;;;;;;;;;14.10;99.90;;;;;;4920732;29;20029;-74
2021/07/05 03:48:08;;;;;;;;;;;14.10;99.90;;;;;;4920547;29;19989;-74
2021/07/05 03:50:37;;;;;;;;;;;14.10;99.90;;;;;;4919729;29;19933;-74
2021/07/05 03:53:05;;;;;;;;;;;14.20;99.90;;;;;;4903528;29;19935;-74
2021/07/05 03:55:32;;;;;;;;;;;14.20;99.90;;;;;;4919669;29;19927;-74
2021/07/05 03:57:59;;;;;;;;;;;14.20;99.90;;;;;;4919658;29;20297;-74
2021/07/05 04:00:31;;;;;;;;;;;14.20;99.90;;;;;;4919550;29;20022;-74
2021/07/05 04:03:03;;;;;;;;;;;14.20;99.90;;;;;;4903834;29;20021;-74
2021/07/05 04:05:31;;;;;;;;;;;14.30;99.90;;;;;;4918407;29;19931;-74
2021/07/05 04:08:04;;;;;;;;;;;14.30;99.90;;;;;;4920135;29;19934;-74
2021/07/05 04:10:36;;;;;;;;;;;14.40;99.90;;;;;;4905946;29;20021;-74
2021/07/05 04:13:06;;;;;;;;;;;14.40;99.90;;;;;;4935020;29;20390;-74
2021/07/05 04:15:34;;;;;;;;;;;14.50;99.90;;;;;;4939255;29;19974;-74
2021/07/05 04:18:06;;;;;;;;;;;14.50;99.90;;;;;;4934632;29;19974;-74
2021/07/05 04:20:38;;;;;;;;;;;14.60;99.90;;;;;;4935693;29;19934;-74
2021/07/05 04:23:04;;;;;;;;;;;14.60;99.90;;;;;;4918183;29;20386;-74
2021/07/05 04:25:36;;;;;;;;;;;14.60;99.90;;;;;;4934755;29;19966;-74
2021/07/05 04:28:03;;;;;;;;;;;14.60;99.90;;;;;;4935793;29;20017;-74
2021/07/05 04:30:36;;;;;;;;;;;14.60;99.90;;;;;;4934456;29;20386;-74
2021/07/05 04:33:08;;;;;;;;;;;14.60;99.90;;;;;;4933571;29;19933;-74
2021/07/05 04:35:35;;;;;;;;;;;14.60;99.90;;;;;;4935143;29;20405;-74
2021/07/05 04:38:06;;;;;;;;;;;14.50;99.90;;;;;;4936152;29;19926;-73
2021/07/05 04:40:35;;;;;;;;;;;14.50;99.90;;;;;;4935436;29;20026;-74
2021/07/05 04:43:02;;;;;;;;;;;14.50;99.90;;;;;;4919306;29;19931;-74
2021/07/05 04:45:34;;;;;;;;;;;14.50;99.90;;;;;;4918816;29;19993;-75
2021/07/05 04:48:02;;;;;;;;;;;14.50;99.90;;;;;;4934572;29;20361;-74
2021/07/05 04:50:34;;;;;;;;;;;14.50;99.90;;;;;;4902967;29;19930;-74
2021/07/05 04:53:06;;;;;;;;;;;14.50;99.90;;;;;;4918263;29;19926;-74
2021/07/05 04:55:37;;;;;;;;;;;14.50;99.90;;;;;;4934722;29;19934;-74
2021/07/05 04:58:09;;;;;;;;;;;14.60;99.90;;;;;;4935672;29;19930;-74
2021/07/05 05:00:41;;;;;;;;;;;14.60;99.90;;;;;;4918449;29;19927;-73
2021/07/05 05:03:07;;;;;;;;;;;14.60;99.90;;;;;;4933957;29;20009;-74
2021/07/05 05:05:41;;;;;;;;;;;14.60;99.90;;;;;;4934369;29;20390;-74
2021/07/05 05:08:08;;;;;;;;;;;14.70;99.90;;;;;;4935596;29;20029;-76
2021/07/05 05:10:40;;;;;;;;;;;14.70;99.90;;;;;;4918383;29;19934;-74
2021/07/05 05:13:12;;;;;;;;;;;14.80;99.90;;;;;;4918430;29;19927;-74
2021/07/05 05:15:43;;;;;;;;;;;14.90;99.90;;;;;;4934127;29;20611;-74
2021/07/05 05:18:15;;;;;;;;;;;15.00;99.90;;;;;;4919099;29;19927;-74
2021/07/05 05:20:42;;;;;;;;;;;15.00;99.90;;;;;;4933991;29;19927;-74
2021/07/05 05:23:13;;;;;;;;;;;15.00;99.90;;;;;;4933728;29;20374;-74
2021/07/05 05:25:40;;;;;;;;;;;15.00;99.90;;;;;;4945293;29;19953;-74
2021/07/05 05:28:07;;;;;;;;;;;14.90;99.90;;;;;;4925755;28;20305;-74
2021/07/05 05:30:39;;;;;;;;;;;14.90;99.90;;;;;;4962724;28;19927;-74
2021/07/05 05:33:10;;;;;;;;;;;15.00;99.90;;;;;;4933050;29;19970;-74
2021/07/05 05:35:37;;;;;;;;;;;15.10;99.90;;;;;;4917943;29;20390;-74
2021/07/05 05:38:04;;;;;;;;;;;15.10;99.90;;;;;;4934816;29;20433;-74
2021/07/05 05:40:36;;;;;;;;;;;15.20;99.90;;;;;;4929363;28;19927;-74
2021/07/05 05:43:08;;;;;;;;;;;15.40;99.90;;;;;;4918879;29;19927;-74
2021/07/05 05:45:40;;;;;;;;;;;15.50;99.90;;;;;;4917228;29;20021;-74
2021/07/05 05:48:12;;;;;;;;;;;15.70;99.90;;;;;;4934425;29;19946;-74
2021/07/05 05:50:43;;;;;;;;;;;15.90;99.90;;;;;;4923136;29;19933;-74
2021/07/05 05:53:10;;;;;;;;;;;16.00;99.90;;;;;;4935705;29;20001;-74
2021/07/05 05:55:46;;;;;;;;;;;16.10;99.90;;;;;;4936340;29;20402;-74
2021/07/05 05:58:18;;;;;;;;;;;16.20;99.90;;;;;;4921113;29;20480;-75
2021/07/05 06:00:49;;;;;;;;;;;16.30;99.90;;;;;;4936698;29;19927;-74
2021/07/05 06:03:21;;;;;;;;;;;16.40;99.90;;;;;;4920638;29;19926;-74
2021/07/05 06:05:48;;;;;;;;;;;16.40;99.90;;;;;;4936168;29;20484;-74
2021/07/05 06:08:19;;;;;;;;;;;16.40;99.90;;;;;;4935939;29;19933;-74
2021/07/05 06:10:51;;;;;;;;;;;16.50;99.90;;;;;;4920643;29;19933;-74
2021/07/05 06:13:18;;;;;;;;;;;16.50;99.90;;;;;;4919659;29;19976;-74
2021/07/05 06:15:49;;;;;;;;;;;16.70;99.90;;;;;;4936465;29;19926;-74
2021/07/05 06:18:25;;;;;;;;;;;16.80;99.90;;;;;;4936453;29;19965;-74
2021/07/05 06:20:57;;;;;;;;;;;16.90;99.90;;;;;;4920684;29;20305;-74
2021/07/05 06:23:29;;;;;;;;;;;17.00;99.90;;;;;;4915081;28;20039;-74
2021/07/05 06:26:01;;;;;;;;;;;17.10;99.90;;;;;;4931232;28;20025;-74
2021/07/05 06:28:34;;;;;;;;;;;17.20;99.90;;;;;;4916757;29;19927;-74
2021/07/05 06:31:01;;;;;;;;;;;17.30;99.90;;;;;;4934092;29;20376;-74
2021/07/05 06:33:33;;;;;;;;;;;17.30;99.90;;;;;;4917246;29;20385;-74
2021/07/05 06:36:00;;;;;;;;;;;17.40;99.90;;;;;;4933540;29;20381;-74
2021/07/05 06:38:26;;;;;;;;;;;17.40;99.90;;;;;;4933370;29;20025;-74
2021/07/05 06:40:55;;;;;;;;;;;17.50;99.90;;;;;;4923912;28;19937;-74
2021/07/05 06:43:27;;;;;;;;;;;17.60;99.90;;;;;;4905400;29;19926;-74
2021/07/05 06:45:59;;;;;;;;;;;17.70;99.90;;;;;;4916475;29;19934;-74
2021/07/05 06:48:31;;;;;;;;;;;17.70;99.90;;;;;;4901670;29;19926;-74
2021/07/05 06:51:02;;;;;;;;;;;17.90;99.90;;;;;;4909908;29;19934;-74
2021/07/05 06:53:29;;;;;;;;;;;17.90;99.90;;;;;;4916411;29;19927;-74
2021/07/05 06:55:56;;;;;;;;;;;18.00;99.90;;;;;;4918294;29;19931;-74
2021/07/05 06:58:22;;;;;;;;;;;18.10;99.90;;;;;;4952165;29;19927;-74
2021/07/05 07:00:49;;;;;;;;;;;18.10;99.90;;;;;;4920088;29;20030;-74
2021/07/05 07:03:22;;;;;;;;;;;18.10;99.90;;;;;;4920706;29;20033;-74
2021/07/05 07:05:50;;;;;;;;;;;18.10;99.90;;;;;;4921070;29;19953;-74
2021/07/05 07:08:16;;;;;;;;;;;18.10;99.90;;;;;;4936165;29;19926;-74
2021/07/05 07:10:48;;;;;;;;;;;18.10;99.90;;;;;;4936925;29;19933;-74
2021/07/05 07:13:20;;;;;;;;;;;18.10;99.90;;;;;;4935510;29;19927;-74
2021/07/05 07:15:55;;;;;;;;;;;18.20;99.90;;;;;;4953222;29;19989;-74
2021/07/05 07:18:44;;;;;;;;;;;18.20;99.90;;;;;;4952990;29;20473;-74
2021/07/05 07:21:16;;;;;;;;;;;18.20;99.90;;;;;;4935419;29;19942;-74
2021/07/05 07:23:42;;;;;;;;;;;18.20;99.90;;;;;;4918799;29;19933;-74
2021/07/05 07:26:14;;;;;;;;;;;18.30;99.90;;;;;;4935743;29;19934;-74
2021/07/05 07:28:51;;;;;;;;;;;18.30;99.90;;;;;;4920348;29;20689;-74
2021/07/05 07:31:19;;;;;;;;;;;18.30;99.90;;;;;;4935158;29;19926;-74
2021/07/05 07:33:45;;;;;;;;;;;18.30;99.90;;;;;;4919664;29;19930;-74
2021/07/05 07:36:17;;;;;;;;;;;18.30;99.90;;;;;;4936456;29;19937;-74
2021/07/05 07:38:48;;;;;;;;;;;18.30;99.90;;;;;;4911878;29;19931;-74
2021/07/05 07:41:21;;;;;;;;;;;18.40;99.90;;;;;;4917971;29;19955;-74
2021/07/05 07:43:52;;;;;;;;;;;18.40;99.90;;;;;;4935265;29;19927;-74
2021/07/05 07:46:19;;;;;;;;;;;18.40;99.90;;;;;;4935826;29;19926;-74
2021/07/05 07:48:46;;;;;;;;;;;18.50;99.90;;;;;;4935696;29;20061;-74
2021/07/05 07:51:12;;;;;;;;;;;18.50;99.90;;;;;;4935029;29;19927;-74
2021/07/05 07:53:39;;;;;;;;;;;18.60;99.90;;;;;;4935288;29;20338;-74
2021/07/05 07:56:06;;;;;;;;;;;18.70;99.90;;;;;;4935566;29;19969;-74
2021/07/05 07:58:32;;;;;;;;;;;18.70;99.90;;;;;;4920742;29;19962;-74
2021/07/05 08:01:04;;;;;;;;;;;18.70;99.90;;;;;;4946209;28;20021;-74
2021/07/05 08:03:31;;;;;;;;;;;18.70;99.90;;;;;;4924127;29;19927;-74
2021/07/05 08:05:58;;;;;;;;;;;18.70;99.90;;;;;;4939775;29;20022;-74
2021/07/05 08:08:30;;;;;;;;;;;18.70;99.90;;;;;;4957198;29;19990;-74
2021/07/05 08:11:02;;;;;;;;;;;18.70;99.90;;;;;;4940082;29;19962;-74
2021/07/05 08:13:28;;;;;;;;;;;18.70;99.90;;;;;;4923172;29;20375;-75
2021/07/05 08:16:00;;;;;;;;;;;18.70;99.90;;;;;;4923454;29;19937;-74
2021/07/05 08:18:27;;;;;;;;;;;18.70;99.90;;;;;;4922879;29;20369;-74
2021/07/05 08:20:58;;;;;;;;;;;18.80;99.90;;;;;;4938427;29;19930;-74
2021/07/05 08:23:30;;;;;;;;;;;18.80;99.90;;;;;;4919748;29;20012;-74
2021/07/05 08:25:58;;;;;;;;;;;18.90;99.90;;;;;;4923126;29;20404;-74
2021/07/05 08:28:30;;;;;;;;;;;18.80;99.90;;;;;;4923271;29;19926;-75
2021/07/05 08:30:58;;;;;;;;;;;18.70;99.90;;;;;;4938557;29;20374;-74
2021/07/05 08:33:31;;;;;;;;;;;18.80;99.90;;;;;;4923110;29;20025;-74
2021/07/05 08:36:00;;;;;;;;;;;18.80;99.90;;;;;;4922474;29;20286;-74
2021/07/05 08:38:27;;;;;;;;;;;18.80;99.90;;;;;;4948118;28;20304;-74
2021/07/05 08:40:58;;;;;;;;;;;18.90;99.90;;;;;;4946180;29;19985;-74
2021/07/05 08:43:27;;;;;;;;;;;18.90;99.90;;;;;;4938328;29;20645;-74
2021/07/05 08:46:00;;;;;;;;;;;18.90;99.90;;;;;;4935330;29;19933;-74
2021/07/05 08:48:37;;;;;;;;;;;18.90;99.90;;;;;;4919841;29;20321;-74
2021/07/05 08:51:04;;;;;;;;;;;18.80;99.90;;;;;;4935767;29;20410;-74
2021/07/05 08:53:31;;;;;;;;;;;18.80;99.90;;;;;;4919262;29;19934;-75
2021/07/05 08:55:58;;;;;;;;;;;18.80;99.90;;;;;;4919790;29;19934;-75
2021/07/05 08:58:25;;;;;;;;;;;18.70;99.90;;;;;;4935983;29;20029;-74
2021/07/05 09:00:52;;;;;;;;;;;18.60;99.90;;;;;;4918887;29;20029;-75
2021/07/05 09:03:25;;;;;;;;;;;18.60;99.90;;;;;;4916513;28;19934;-74
2021/07/05 09:06:13;;;;;;;;;;;18.50;99.90;;;;;;4938479;29;20293;-74
2021/07/05 09:08:41;;;;;;;;;;;18.60;99.90;;;;;;4969366;28;20341;-75
2021/07/05 09:11:17;;;;;;;;;;;18.60;99.90;;;;;;4922637;29;19926;-74
2021/07/05 09:13:46;;;;;;;;;;;18.60;99.90;;;;;;4922376;29;20017;-74
2021/07/05 09:16:26;;;;;;;;;;;18.60;99.90;;;;;;4922140;29;19927;-74
2021/07/05 09:18:54;;;;;;;;;;;18.60;99.90;;;;;;4936012;29;20389;-74
2021/07/05 09:21:21;;;;;;;;;;;18.60;99.90;;;;;;4919946;28;19969;-74
2021/07/05 09:23:48;;;;;;;;;;;18.60;99.90;;;;;;4923273;29;20390;-74
2021/07/05 09:26:38;;;;;;;;;;;18.70;99.90;;;;;;4937378;29;19973;-74
2021/07/05 09:29:07;;;;;;;;;;;18.80;99.90;;;;;;4947090;29;19926;-74
2021/07/05 09:31:47;;;;;;;;;;;18.80;99.90;;;;;;4937223;29;19931;-74
2021/07/05 09:34:24;;;;;;;;;;;18.90;99.90;;;;;;4937070;29;19927;-75
2021/07/05 09:36:54;;;;;;;;;;;19.10;99.90;;;;;;4921494;29;20289;-74
2021/07/05 09:39:23;;;;;;;;;;;19.10;99.90;;;;;;4954258;29;19927;-74
2021/07/05 09:41:55;;;;;;;;;;;19.20;99.90;;;;;;4937278;29;19936;-74
2021/07/05 09:44:22;;;;;;;;;;;19.20;99.90;;;;;;4937052;29;20033;-74
2021/07/05 09:46:50;;;;;;;;;;;19.30;99.90;;;;;;4920886;29;20040;-74
2021/07/05 09:49:20;;;;;;;;;;;19.30;99.90;;;;;;4937067;29;20308;-74
2021/07/05 09:52:05;;;;;;;;;;;19.40;99.90;;;;;;4935441;29;20029;-74
2021/07/05 09:54:38;;;;;;;;;;;19.40;99.90;;;;;;4935957;29;19930;-74
2021/07/05 09:57:27;;;;;;;;;;;19.50;99.90;;;;;;4920114;29;20114;-74
2021/07/05 09:59:55;;;;;;;;;;;19.60;99.90;;;;;;4932239;29;19926;-74
2021/07/05 10:02:27;;;;;;;;;;;19.70;99.90;;;;;;4920793;29;19948;-74
2021/07/05 10:05:12;;;;;;;;;;;19.80;99.90;;;;;;4937059;29;20017;-74
2021/07/05 10:07:56;;;;;;;;;;;19.90;99.90;;;;;;4921587;29;20396;-74
2021/07/05 10:10:23;;;;;;;;;;;20.00;99.90;;;;;;4936572;29;20342;-74
2021/07/05 10:12:52;;;;;;;;;;;19.90;99.90;;;;;;4920402;28;19926;-74
2021/07/05 10:15:20;;;;;;;;;;;19.90;99.90;;;;;;4953544;29;19973;-74
2021/07/05 10:17:53;;;;;;;;;;;19.90;99.90;;;;;;4953648;29;20279;-75
2021/07/05 10:20:22;;;;;;;;;;;19.90;99.90;;;;;;4920823;29;19981;-75
2021/07/05 10:22:50;;;;;;;;;;;19.70;99.90;;;;;;4936154;28;19978;-75
2021/07/05 10:25:18;;;;;;;;;;;19.50;99.90;;;;;;4920756;29;19966;-75
2021/07/05 10:27:45;;;;;;;;;;;19.40;99.90;;;;;;4936159;29;19931;-75
2021/07/05 10:30:13;;;;;;;;;;;19.30;99.90;;;;;;4936636;29;19958;-75
2021/07/05 10:32:41;;;;;;;;;;;19.20;99.90;;;;;;4936163;28;20025;-75
2021/07/05 10:35:09;;;;;;;;;;;19.20;99.90;;;;;;4953488;29;19970;-75
2021/07/05 10:37:40;;;;;;;;;;;19.10;99.90;;;;;;4920668;29;19930;-75
2021/07/05 10:40:09;;;;;;;;;;;19.10;99.90;;;;;;4920281;29;19926;-75
2021/07/05 10:42:43;;;;;;;;;;;19.10;99.90;;;;;;4935599;29;19980;-74
2021/07/05 10:45:12;;;;;;;;;;;19.20;99.90;;;;;;4920639;29;19961;-75
2021/07/05 10:47:55;;;;;;;;;;;19.30;99.90;;;;;;4920483;29;20017;-75
2021/07/05 10:50:41;;;;;;;;;;;19.30;99.90;;;;;;4937062;29;19926;-75
2021/07/05 10:53:12;;;;;;;;;;;19.40;99.90;;;;;;4935781;29;20402;-75
2021/07/05 10:55:39;;;;;;;;;;;19.40;99.90;;;;;;4935741;29;19926;-75
2021/07/05 10:58:17;;;;;;;;;;;19.50;99.90;;;;;;4920231;29;20017;-75
2021/07/05 11:00:51;;;;;;;;;;;19.60;99.90;;;;;;4921256;29;19934;-74
2021/07/05 11:03:38;;;;;;;;;;;19.70;99.90;;;;;;4920626;29;19927;-75
2021/07/05 11:06:25;;;;;;;;;;;19.80;99.90;;;;;;4935996;29;19941;-75
2021/07/05 11:08:53;;;;;;;;;;;19.80;99.90;;;;;;4929136;29;19926;-74
2021/07/05 11:11:32;;;;;;;;;;;19.80;99.90;;;;;;4920424;29;19937;-75
2021/07/05 11:14:09;;;;;;;;;;;19.80;99.90;;;;;;4953358;28;19974;-74
2021/07/05 11:16:55;;;;;;;;;;;19.70;99.90;;;;;;4939518;29;20373;-74
2021/07/05 11:19:46;;;;;;;;;;;19.60;99.90;;;;;;4940413;29;20013;-74
2021/07/05 11:22:33;;;;;;;;;;;19.60;99.90;;;;;;4924115;29;19926;-74
2021/07/05 11:25:12;;;;;;;;;;;19.70;99.90;;;;;;4923545;29;19926;-74
2021/07/05 11:27:48;;;;;;;;;;;19.90;99.90;;;;;;4939494;29;19933;-74
2021/07/05 11:30:22;;;;;;;;;;;19.90;99.90;;;;;;4924283;29;19932;-74
2021/07/05 11:32:57;;;;;;;;;;;19.90;99.90;;;;;;4938590;28;19926;-74
2021/07/05 11:35:27;;;;;;;;;;;19.90;99.90;;;;;;4939108;29;20033;-74
2021/07/05 11:37:54;;;;;;;;;;;20.00;99.90;;;;;;4956083;29;20013;-74
2021/07/05 11:40:40;;;;;;;;;;;20.10;99.90;;;;;;4939046;29;19932;-74
2021/07/05 11:43:06;;;;;;;;;;;20.10;99.90;;;;;;4938500;29;19927;-74
2021/07/05 11:45:38;;;;;;;;;;;20.10;99.90;;;;;;4939260;29;19933;-74
2021/07/05 11:48:10;;;;;;;;;;;20.10;99.90;;;;;;4940416;29;20297;-74
2021/07/05 11:50:38;;;;;;;;;;;19.90;99.90;;;;;;4938886;29;19926;-74
2021/07/05 11:53:05;;;;;;;;;;;19.50;99.90;;;;;;4955471;28;20644;-74
2021/07/05 11:55:36;;;;;;;;;;;19.10;99.90;;;;;;4955592;29;20428;-74
2021/07/05 11:58:09;;;;;;;;;;;18.80;99.90;;;;;;4923369;29;19936;-74
2021/07/05 12:00:41;;;;;;;;;;;18.70;99.90;;;;;;4954220;29;20291;-74
2021/07/05 12:03:13;;;;;;;;;;;18.70;99.90;;;;;;4938154;29;19957;-74
2021/07/05 12:05:56;;;;;;;;;;;18.70;99.90;;;;;;4937828;29;20139;-74
2021/07/05 12:08:23;;;;;;;;;;;18.70;99.90;;;;;;4920555;29;20393;-74
2021/07/05 12:10:56;;;;;;;;;;;18.80;99.90;;;;;;4949826;28;20030;-74
2021/07/05 12:13:25;;;;;;;;;;;18.90;99.90;;;;;;4959616;28;19930;-74
2021/07/05 12:16:00;;;;;;;;;;;18.90;99.90;;;;;;4944011;28;20213;-74
2021/07/05 12:18:26;;;;;;;;;;;18.80;99.90;;;;;;4935732;29;20017;-74
2021/07/05 12:20:57;;;;;;;;;;;18.70;99.90;;;;;;4919248;29;20025;-74
2021/07/05 12:23:39;;;;;;;;;;;18.70;99.90;;;;;;4950748;28;19948;-75
2021/07/05 12:26:13;;;;;;;;;;;18.70;99.90;;;;;;4935686;29;19926;-75
2021/07/05 12:28:59;;;;;;;;;;;18.70;99.90;;;;;;4932241;29;19930;-74
2021/07/05 12:31:26;;;;;;;;;;;18.90;99.90;;;;;;4934488;29;20030;-74
2021/07/05 12:33:53;;;;;;;;;;;18.90;99.90;;;;;;4923143;28;19981;-74
2021/07/05 12:36:25;;;;;;;;;;;18.80;99.90;;;;;;4914856;29;20677;-78
2021/07/05 12:39:03;;;;;;;;;;;19.00;99.90;;;;;;4932860;29;19927;-74
2021/07/05 12:41:31;;;;;;;;;;;19.20;99.90;;;;;;4921776;29;19935;-74
2021/07/05 12:44:11;;;;;;;;;;;19.50;99.90;;;;;;4921729;28;20029;-74
2021/07/05 12:46:37;;;;;;;;;;;19.80;99.90;;;;;;4935204;28;19927;-74
2021/07/05 12:49:09;;;;;;;;;;;19.90;99.90;;;;;;4938574;29;19927;-74
2021/07/05 12:51:36;;;;;;;;;;;20.10;99.90;;;;;;4934088;29;20025;-74
2021/07/05 12:54:17;;;;;;;;;;;20.30;99.90;;;;;;4926497;29;19927;-74
2021/07/05 12:56:43;;;;;;;;;;;20.40;99.90;;;;;;4910627;28;20330;-74
2021/07/05 12:59:16;;;;;;;;;;;20.40;99.90;;;;;;4918243;29;19927;-74
2021/07/05 13:01:43;;;;;;;;;;;20.50;99.90;;;;;;4917988;29;19992;-74
2021/07/05 13:04:19;;;;;;;;;;;20.60;99.90;;;;;;4929976;28;19977;-74
2021/07/05 13:07:00;;;;;;;;;;;20.60;99.90;;;;;;4934011;28;19926;-74
2021/07/05 13:09:32;;;;;;;;;;;20.70;99.90;;;;;;4956048;28;20284;-74
2021/07/05 13:12:06;;;;;;;;;;;20.60;99.90;;;;;;4948019;29;19969;-74
2021/07/05 13:14:34;;;;;;;;;;;20.40;99.90;;;;;;4942732;29;20302;-74
2021/07/05 13:17:12;;;;;;;;;;;20.30;99.90;;;;;;4949198;29;19931;-74
2021/07/05 13:19:39;;;;;;;;;;;20.10;99.90;;;;;;4917811;29;20021;-74
2021/07/05 13:22:14;;;;;;;;;;;20.20;99.90;;;;;;4934635;29;20021;-74
2021/07/05 13:24:46;;;;;;;;;;;20.20;99.90;;;;;;4925940;28;20030;-74
2021/07/05 13:27:27;;;;;;;;;;;20.20;99.90;;;;;;4936582;29;20463;-74
2021/07/05 13:30:00;;;;;;;;;;;20.30;99.90;;;;;;4936579;29;19935;-74
2021/07/05 13:32:28;;;;;;;;;;;20.60;99.90;;;;;;4953312;29;19933;-74
2021/07/05 13:35:07;;;;;;;;;;;20.90;99.90;;;;;;4922103;28;19926;-74
2021/07/05 13:37:43;;;;;;;;;;;21.10;99.90;;;;;;4953452;28;19943;-74
2021/07/05 13:40:11;;;;;;;;;;;21.20;99.90;;;;;;4936503;29;20416;-74
2021/07/05 13:42:44;;;;;;;;;;;21.40;99.90;;;;;;4935770;28;19926;-74
2021/07/05 13:45:24;;;;;;;;;;;21.40;99.90;;;;;;4922778;29;19930;-74
2021/07/05 13:47:57;;;;;;;;;;;21.40;99.90;;;;;;4936332;29;19937;-74
2021/07/05 13:50:39;;;;;;;;;;;21.40;99.90;;;;;;4953336;29;19941;-74
2021/07/05 13:53:21;;;;;;;;;;;21.50;99.90;;;;;;4931923;29;20378;-74
2021/07/05 13:55:58;;;;;;;;;;;21.30;99.90;;;;;;4946553;28;20385;-74
2021/07/05 13:58:26;;;;;;;;;;;21.20;99.90;;;;;;4953446;29;19933;-74
2021/07/05 14:00:54;;;;;;;;;;;21.00;99.90;;;;;;4920580;29;19933;-74
2021/07/05 14:03:21;;;;;;;;;;;21.00;99.90;;;;;;4934494;29;20025;-74
2021/07/05 14:06:00;;;;;;;;;;;21.00;99.90;;;;;;4933606;28;19934;-74
2021/07/05 14:08:28;;;;;;;;;;;20.90;99.90;;;;;;4957155;28;20351;-74
2021/07/05 14:11:01;;;;;;;;;;;21.00;99.90;;;;;;4919971;29;19934;-74
2021/07/05 14:13:35;;;;;;;;;;;21.10;99.90;;;;;;4933990;29;20436;-74
2021/07/05 14:16:08;;;;;;;;;;;21.10;99.90;;;;;;4937951;29;19926;-74
2021/07/05 14:18:41;;;;;;;;;;;21.20;99.90;;;;;;4932741;29;20279;-74
2021/07/05 14:21:09;;;;;;;;;;;21.10;99.90;;;;;;4931351;29;19927;-74
2021/07/05 14:23:36;;;;;;;;;;;21.00;99.90;;;;;;4934795;28;19930;-73
2021/07/05 14:26:08;;;;;;;;;;;21.00;99.90;;;;;;4915502;29;19933;-74
2021/07/05 14:28:40;;;;;;;;;;;20.80;99.90;;;;;;4919864;29;19961;-74
2021/07/05 14:31:07;;;;;;;;;;;20.80;99.90;;;;;;4946208;28;20021;-73
2021/07/05 14:33:38;;;;;;;;;;;20.60;99.90;;;;;;4933923;28;19927;-74
2021/07/05 14:36:05;;;;;;;;;;;20.40;99.90;;;;;;4947842;28;20381;-74
2021/07/05 14:38:32;;;;;;;;;;;20.30;99.90;;;;;;4936308;28;19933;-74